createdAt,value
2022-12-11T00:01:27.774Z,0.40
2022-12-11T00:03:54.773Z,0.40
2022-12-11T00:06:22.192Z,0.30
2022-12-11T00:08:53.778Z,0.30
2022-12-11T00:11:20.932Z,0.30
2022-12-11T00:13:47.926Z,0.30
2022-12-11T00:16:14.952Z,0.20
2022-12-11T00:18:41.872Z,0.20
2022-12-11T00:21:11.499Z,0.20
2022-12-11T00:23:38.634Z,0.20
2022-12-11T00:26:07.029Z,0.20
2022-12-11T00:28:34.084Z,0.20
2022-12-11T00:31:03.968Z,0.20
2022-12-11T00:33:30.923Z,0.30
2022-12-11T00:35:57.821Z,0.30
2022-12-11T00:38:25.477Z,0.30
2022-12-11T00:40:52.472Z,0.30
2022-12-11T00:43:19.482Z,0.30
2022-12-11T00:45:46.742Z,0.20
2022-12-11T00:48:13.823Z,0.20
2022-12-11T00:50:42.046Z,0.20
2022-12-11T00:53:09.125Z,0.20
2022-12-11T00:55:39.680Z,0.20
2022-12-11T00:58:06.719Z,0.10
2022-12-11T01:00:33.669Z,0.10
2022-12-11T01:03:00.777Z,0.20
2022-12-11T01:05:27.767Z,0.20
2022-12-11T01:07:54.806Z,0.20
2022-12-11T01:10:24.707Z,0.10
2022-12-11T01:12:58.742Z,0.20
2022-12-11T01:15:27.018Z,0.20
2022-12-11T01:17:53.912Z,0.10
2022-12-11T01:20:21.124Z,0.10
2022-12-11T01:22:48.064Z,0.10
2022-12-11T01:25:15.102Z,0.10
2022-12-11T01:27:42.080Z,0.10
2022-12-11T01:30:09.228Z,0.10
2022-12-11T01:32:36.251Z,0.10
2022-12-11T01:35:04.418Z,0.10
2022-12-11T01:37:31.368Z,0.00
2022-12-11T01:39:59.217Z,0.00
2022-12-11T01:42:26.598Z,0.00
2022-12-11T01:44:53.488Z,-0.10
2022-12-11T01:47:20.388Z,-0.10
2022-12-11T01:49:47.285Z,-0.10
2022-12-11T01:52:15.527Z,-0.10
2022-12-11T01:54:42.445Z,-0.10
2022-12-11T01:57:09.485Z,-0.10
2022-12-11T01:59:37.879Z,-0.20
2022-12-11T02:02:06.547Z,-0.20
2022-12-11T02:04:33.522Z,-0.20
2022-12-11T02:07:00.573Z,-0.20
2022-12-11T02:09:28.749Z,-0.20
2022-12-11T02:12:10.267Z,-0.20
2022-12-11T02:14:44.843Z,-0.10
2022-12-11T02:17:16.697Z,-0.10
2022-12-11T02:19:43.648Z,-0.10
2022-12-11T02:22:11.624Z,-0.10
2022-12-11T02:25:05.086Z,-0.20
2022-12-11T02:27:41.347Z,-0.20
2022-12-11T02:30:08.707Z,-0.30
2022-12-11T02:32:39.549Z,-0.30
2022-12-11T02:35:35.980Z,-0.30
2022-12-11T02:38:04.016Z,-0.20
2022-12-11T02:40:31.649Z,-0.20
2022-12-11T02:42:59.321Z,-0.30
2022-12-11T02:45:26.430Z,-0.20
2022-12-11T02:47:53.374Z,-0.30
2022-12-11T02:50:20.980Z,-0.30
2022-12-11T02:52:48.553Z,-0.30
2022-12-11T02:55:15.944Z,-0.20
2022-12-11T02:57:44.730Z,-0.20
2022-12-11T03:00:11.990Z,-0.20
2022-12-11T03:02:39.157Z,-0.30
2022-12-11T03:05:06.291Z,-0.30
2022-12-11T03:07:34.439Z,-0.30
2022-12-11T03:10:01.355Z,-0.30
2022-12-11T03:12:29.395Z,-0.30
2022-12-11T03:14:56.446Z,-0.30
2022-12-11T03:17:24.190Z,-0.30
2022-12-11T03:19:53.999Z,-0.20
2022-12-11T03:22:22.686Z,-0.20
2022-12-11T03:24:52.548Z,-0.20
2022-12-11T03:27:23.134Z,-0.20
2022-12-11T03:30:09.438Z,-0.20
2022-12-11T03:32:37.505Z,-0.20
2022-12-11T03:35:07.536Z,-0.20
2022-12-11T03:37:35.420Z,-0.20
2022-12-11T03:40:06.644Z,-0.10
2022-12-11T03:42:33.784Z,-0.10
2022-12-11T03:45:00.758Z,-0.10
2022-12-11T03:47:27.785Z,-0.10
2022-12-11T03:49:54.839Z,-0.10
2022-12-11T03:52:21.796Z,-0.10
2022-12-11T03:54:49.340Z,-0.10
2022-12-11T03:57:19.145Z,-0.10
2022-12-11T03:59:46.199Z,-0.10
2022-12-11T04:02:13.226Z,-0.20
2022-12-11T04:04:40.917Z,-0.20
2022-12-11T04:07:08.217Z,-0.30
2022-12-11T04:09:35.235Z,-0.30
2022-12-11T04:12:02.145Z,-0.30
2022-12-11T04:14:47.835Z,-0.30
2022-12-11T04:17:34.654Z,-0.20
2022-12-11T04:20:21.902Z,-0.20
2022-12-11T04:23:07.475Z,-0.20
2022-12-11T04:25:34.421Z,-0.20
2022-12-11T04:28:01.448Z,-0.20
2022-12-11T04:30:33.988Z,-0.20
2022-12-11T04:33:01.461Z,-0.20
2022-12-11T04:35:28.473Z,-0.20
2022-12-11T04:37:55.368Z,-0.20
2022-12-11T04:40:22.429Z,-0.20
2022-12-11T04:42:49.421Z,-0.20
2022-12-11T04:45:16.424Z,-0.30
2022-12-11T04:47:43.381Z,-0.30
2022-12-11T04:50:11.554Z,-0.30
2022-12-11T04:52:38.487Z,-0.30
2022-12-11T04:55:06.263Z,-0.40
2022-12-11T04:57:33.261Z,-0.30
2022-12-11T05:00:00.277Z,-0.30
2022-12-11T05:02:27.259Z,-0.30
2022-12-11T05:04:54.231Z,-0.30
2022-12-11T05:07:21.259Z,-0.30
2022-12-11T05:09:48.326Z,-0.40
2022-12-11T05:12:15.234Z,-0.30
2022-12-11T05:14:42.198Z,-0.40
2022-12-11T05:17:09.163Z,-0.30
2022-12-11T05:19:36.157Z,-0.40
2022-12-11T05:22:03.073Z,-0.40
2022-12-11T05:24:30.000Z,-0.40
2022-12-11T05:26:57.054Z,-0.40
2022-12-11T05:29:24.092Z,-0.50
2022-12-11T05:31:53.088Z,-0.50
2022-12-11T05:34:20.039Z,-0.50
2022-12-11T05:36:47.333Z,-0.50
2022-12-11T05:39:14.341Z,-0.50
2022-12-11T05:41:41.294Z,-0.50
2022-12-11T05:44:09.871Z,-0.50
2022-12-11T05:46:36.840Z,-0.50
2022-12-11T05:49:03.932Z,-0.50
2022-12-11T05:51:30.962Z,-0.60
2022-12-11T05:53:58.214Z,-0.60
2022-12-11T05:56:26.452Z,-0.60
2022-12-11T05:58:53.555Z,-0.60
2022-12-11T06:01:26.491Z,-0.70
2022-12-11T06:03:53.934Z,-0.70
2022-12-11T06:06:20.986Z,-0.70
2022-12-11T06:08:51.317Z,-0.80
2022-12-11T06:11:23.612Z,-0.80
2022-12-11T06:13:51.159Z,-0.70
2022-12-11T06:16:18.151Z,-0.70
2022-12-11T06:18:45.132Z,-0.70
2022-12-11T06:21:15.688Z,-0.70
2022-12-11T06:23:42.746Z,-0.70
2022-12-11T06:26:09.893Z,-0.70
2022-12-11T06:28:36.964Z,-0.70
2022-12-11T06:31:03.947Z,-0.70
2022-12-11T06:33:30.927Z,-0.70
2022-12-11T06:36:01.488Z,-0.70
2022-12-11T06:38:28.454Z,-0.80
2022-12-11T06:40:56.557Z,-0.80
2022-12-11T06:43:23.600Z,-0.80
2022-12-11T06:45:50.706Z,-0.70
2022-12-11T06:48:18.120Z,-0.70
2022-12-11T06:50:45.084Z,-0.70
2022-12-11T06:53:12.510Z,-0.70
2022-12-11T06:55:39.487Z,-0.70
2022-12-11T06:58:06.427Z,-0.70
2022-12-11T07:00:35.153Z,-0.70
2022-12-11T07:03:02.232Z,-0.80
2022-12-11T07:05:29.730Z,-0.80
2022-12-11T07:07:56.748Z,-0.80
2022-12-11T07:10:23.834Z,-0.80
2022-12-11T07:12:52.492Z,-0.80
2022-12-11T07:15:19.455Z,-0.90
2022-12-11T07:17:46.466Z,-0.90
2022-12-11T07:20:13.530Z,-0.90
2022-12-11T07:22:46.250Z,-0.90
2022-12-11T07:25:14.147Z,-0.80
2022-12-11T07:27:41.758Z,-0.80
2022-12-11T07:30:09.412Z,-0.80
2022-12-11T07:32:36.449Z,-0.80
2022-12-11T07:35:03.682Z,-0.80
2022-12-11T07:37:30.637Z,-0.70
2022-12-11T07:39:57.604Z,-0.70
2022-12-11T07:42:24.661Z,-0.60
2022-12-11T07:44:51.757Z,-0.60
2022-12-11T07:47:18.738Z,-0.50
2022-12-11T07:49:45.614Z,-0.60
2022-12-11T07:52:12.610Z,-0.60
2022-12-11T07:54:39.783Z,-0.60
2022-12-11T07:57:12.325Z,-0.60
2022-12-11T07:59:41.969Z,-0.60
2022-12-11T08:02:12.109Z,-0.60
2022-12-11T08:04:39.219Z,-0.60
2022-12-11T08:07:06.209Z,-0.50
2022-12-11T08:09:33.221Z,-0.50
2022-12-11T08:12:00.089Z,-0.50
2022-12-11T08:14:27.108Z,-0.50
2022-12-11T08:16:54.120Z,-0.50
2022-12-11T08:19:21.201Z,-0.50
2022-12-11T08:21:48.171Z,-0.40
2022-12-11T08:24:16.466Z,-0.40
2022-12-11T08:26:44.785Z,-0.40
2022-12-11T08:29:11.748Z,-0.50
2022-12-11T08:31:39.409Z,-0.40
2022-12-11T08:34:06.396Z,-0.40
2022-12-11T08:36:33.361Z,-0.40
2022-12-11T08:39:00.351Z,-0.40
2022-12-11T08:41:28.277Z,-0.40
2022-12-11T08:43:55.563Z,-0.30
2022-12-11T08:46:23.974Z,-0.20
2022-12-11T08:48:51.139Z,-0.20
2022-12-11T08:51:20.829Z,-0.20
2022-12-11T08:53:47.769Z,-0.20
2022-12-11T08:56:15.740Z,-0.20
2022-12-11T08:58:43.079Z,-0.10
2022-12-11T09:01:11.146Z,-0.10
2022-12-11T09:03:38.306Z,-0.10
2022-12-11T09:06:08.634Z,-0.20
2022-12-11T09:08:36.236Z,-0.20
2022-12-11T09:11:09.928Z,-0.20
2022-12-11T09:13:37.048Z,-0.20
2022-12-11T09:16:05.175Z,-0.10
2022-12-11T09:18:32.248Z,-0.10
2022-12-11T09:21:02.409Z,-0.10
2022-12-11T09:23:29.355Z,-0.20
2022-12-11T09:25:56.361Z,-0.20
2022-12-11T09:28:23.356Z,-0.20
2022-12-11T09:30:50.344Z,-0.20
2022-12-11T09:33:17.347Z,-0.30
2022-12-11T09:35:44.355Z,-0.20
2022-12-11T09:38:11.339Z,-0.20
2022-12-11T09:40:41.902Z,-0.10
2022-12-11T09:43:29.132Z,0.00
2022-12-11T09:45:56.402Z,0.10
2022-12-11T09:48:23.989Z,0.10
2022-12-11T09:50:51.990Z,0.10
2022-12-11T09:53:20.529Z,0.20
2022-12-11T09:55:53.028Z,0.20
2022-12-11T09:58:23.131Z,0.20
2022-12-11T10:00:53.924Z,0.20
2022-12-11T10:03:24.538Z,0.10
2022-12-11T10:06:30.063Z,0.10
2022-12-11T10:09:06.002Z,0.10
2022-12-11T10:11:33.161Z,0.10
2022-12-11T10:14:03.175Z,0.10
2022-12-11T10:16:37.625Z,0.00
2022-12-11T10:19:04.768Z,-0.10
2022-12-11T10:21:36.663Z,0.00
2022-12-11T10:24:03.776Z,0.00
2022-12-11T10:26:30.861Z,0.00
2022-12-11T10:28:58.902Z,0.00
2022-12-11T10:31:44.972Z,0.00
2022-12-11T10:34:13.183Z,0.00
2022-12-11T10:36:41.020Z,0.10
2022-12-11T10:39:20.807Z,0.00
2022-12-11T10:41:48.542Z,0.00
2022-12-11T10:44:17.589Z,0.10
2022-12-11T10:46:45.012Z,0.10
2022-12-11T10:49:22.277Z,0.20
2022-12-11T10:51:49.136Z,0.20
2022-12-11T10:54:28.133Z,0.20
2022-12-11T10:56:55.175Z,0.20
2022-12-11T10:59:24.173Z,0.20
2022-12-11T11:01:51.383Z,0.20
2022-12-11T11:04:24.102Z,0.20
2022-12-11T11:07:01.288Z,0.20
2022-12-11T11:09:35.359Z,0.20
2022-12-11T11:12:07.678Z,0.20
2022-12-11T11:14:35.111Z,0.20
2022-12-11T11:17:02.079Z,0.20
2022-12-11T11:19:35.332Z,0.20
2022-12-11T11:22:03.706Z,0.30
2022-12-11T11:24:30.650Z,0.30
2022-12-11T11:27:13.177Z,0.40
2022-12-11T11:29:40.474Z,0.40
2022-12-11T11:32:33.439Z,0.50
2022-12-11T11:35:13.112Z,0.40
2022-12-11T11:37:41.025Z,0.40
2022-12-11T11:40:13.880Z,0.50
2022-12-11T11:42:47.160Z,0.40
2022-12-11T11:45:18.251Z,0.40
2022-12-11T11:48:11.047Z,0.40
2022-12-11T11:50:38.475Z,0.50
2022-12-11T11:53:18.223Z,0.50
2022-12-11T11:56:06.064Z,0.50
2022-12-11T11:58:39.068Z,0.50
2022-12-11T12:01:08.840Z,0.40
2022-12-11T12:03:35.784Z,0.40
2022-12-11T12:06:21.266Z,0.40
2022-12-11T12:08:51.331Z,0.40
2022-12-11T12:11:24.125Z,0.40
2022-12-11T12:13:54.691Z,0.50
2022-12-11T12:16:56.113Z,0.50
2022-12-11T12:19:36.855Z,0.60
2022-12-11T12:22:24.159Z,0.60
2022-12-11T12:25:07.229Z,0.60
2022-12-11T12:27:53.676Z,0.50
2022-12-11T12:30:23.221Z,0.50
2022-12-11T12:33:11.524Z,0.50
2022-12-11T12:35:40.205Z,0.50
2022-12-11T12:38:07.176Z,0.50
2022-12-11T12:40:52.579Z,0.60
2022-12-11T12:43:19.687Z,0.60
2022-12-11T12:46:01.972Z,0.60
2022-12-11T12:48:28.980Z,0.40
2022-12-11T12:50:55.984Z,0.30
2022-12-11T12:53:27.662Z,0.30
2022-12-11T12:55:54.662Z,0.40
2022-12-11T12:58:29.428Z,0.40
2022-12-11T13:01:15.783Z,0.40
2022-12-11T13:03:54.435Z,0.30
2022-12-11T13:06:34.996Z,0.20
2022-12-11T13:09:10.878Z,0.20
2022-12-11T13:11:37.898Z,0.30
2022-12-11T13:14:06.549Z,0.30
2022-12-11T13:16:37.271Z,0.30
2022-12-11T13:19:04.279Z,0.30
2022-12-11T13:21:34.079Z,0.30
2022-12-11T13:24:27.303Z,0.30
2022-12-11T13:26:54.296Z,0.30
2022-12-11T13:29:30.908Z,0.30
2022-12-11T13:31:59.158Z,0.20
2022-12-11T13:34:26.118Z,0.20
2022-12-11T13:36:53.147Z,0.20
2022-12-11T13:39:27.655Z,0.20
2022-12-11T13:42:01.829Z,0.10
2022-12-11T13:44:33.734Z,0.10
2022-12-11T13:47:01.032Z,0.00
2022-12-11T13:49:28.881Z,0.00
2022-12-11T13:51:57.130Z,-0.10
2022-12-11T13:54:24.287Z,-0.10
2022-12-11T13:56:55.194Z,-0.10
2022-12-11T13:59:42.523Z,-0.20
2022-12-11T14:02:28.793Z,-0.20
2022-12-11T14:04:59.497Z,-0.30
2022-12-11T14:07:36.719Z,-0.30
2022-12-11T14:10:08.138Z,-0.30
2022-12-11T14:12:35.166Z,-0.40
2022-12-11T14:15:02.412Z,-0.40
2022-12-11T14:17:30.285Z,-0.40
2022-12-11T14:19:57.669Z,-0.40
2022-12-11T14:22:25.560Z,-0.40
2022-12-11T14:24:53.468Z,-0.30
2022-12-11T14:27:20.835Z,-0.30
2022-12-11T14:29:47.976Z,-0.30
2022-12-11T14:32:25.325Z,-0.40
2022-12-11T14:34:52.260Z,-0.40
2022-12-11T14:37:19.676Z,-0.40
2022-12-11T14:39:52.943Z,-0.40
2022-12-11T14:42:23.813Z,-0.40
2022-12-11T14:44:54.722Z,-0.50
2022-12-11T14:47:28.396Z,-0.50
2022-12-11T14:50:03.910Z,-0.50
2022-12-11T14:52:35.565Z,-0.60
2022-12-11T14:55:08.841Z,-0.60
2022-12-11T14:57:35.813Z,-0.50
2022-12-11T15:00:02.850Z,-0.50
2022-12-11T15:02:33.556Z,-0.50
2022-12-11T15:05:14.031Z,-0.50
2022-12-11T15:07:53.877Z,-0.50
2022-12-11T15:10:24.831Z,-0.60
2022-12-11T15:12:51.864Z,-0.60
2022-12-11T15:15:18.968Z,-0.60
2022-12-11T15:17:52.446Z,-0.60
2022-12-11T15:20:29.083Z,-0.60
2022-12-11T15:22:57.563Z,-0.60
2022-12-11T15:25:28.604Z,-0.60
2022-12-11T15:27:56.820Z,-0.70
2022-12-11T15:30:29.527Z,-0.60
2022-12-11T15:33:29.640Z,-0.70
2022-12-11T15:36:03.862Z,-0.70
2022-12-11T15:38:30.863Z,-0.70
2022-12-11T15:40:57.798Z,-0.70
2022-12-11T15:43:25.160Z,-0.70
2022-12-11T15:45:52.352Z,-0.70
2022-12-11T15:48:19.350Z,-0.70
2022-12-11T15:50:46.315Z,-0.70
2022-12-11T15:53:13.240Z,-0.70
2022-12-11T15:55:40.245Z,-0.70
2022-12-11T15:58:09.488Z,-0.70
2022-12-11T16:00:36.530Z,-0.70
2022-12-11T16:03:03.660Z,-0.70
2022-12-11T16:05:30.659Z,-0.70
2022-12-11T16:08:00.547Z,-0.70
2022-12-11T16:10:27.544Z,-0.70
2022-12-11T16:12:59.401Z,-0.70
2022-12-11T16:15:26.840Z,-0.70
2022-12-11T16:18:03.581Z,-0.70
2022-12-11T16:20:31.152Z,-0.70
2022-12-11T16:22:58.541Z,-0.70
2022-12-11T16:25:25.958Z,-0.70
2022-12-11T16:27:55.156Z,-0.70
2022-12-11T16:30:22.030Z,-0.70
2022-12-11T16:32:49.011Z,-0.70
2022-12-11T16:35:15.999Z,-0.70
2022-12-11T16:37:42.983Z,-0.70
2022-12-11T16:40:10.602Z,-0.70
2022-12-11T16:42:37.882Z,-0.80
2022-12-11T16:45:06.598Z,-0.70
2022-12-11T16:47:33.615Z,-0.70
2022-12-11T16:50:00.577Z,-0.80
2022-12-11T16:52:27.764Z,-0.80
2022-12-11T16:54:54.838Z,-0.80
2022-12-11T16:57:21.719Z,-0.80
2022-12-11T16:59:48.720Z,-0.80
2022-12-11T17:02:15.851Z,-0.80
2022-12-11T17:04:42.828Z,-0.80
2022-12-11T17:07:09.858Z,-0.80
2022-12-11T17:09:36.756Z,-0.80
2022-12-11T17:12:03.965Z,-0.80
2022-12-11T17:14:30.936Z,-0.70
2022-12-11T17:16:57.879Z,-0.80
2022-12-11T17:19:24.922Z,-0.70
2022-12-11T17:21:54.253Z,-0.70
2022-12-11T17:24:21.250Z,-0.70
2022-12-11T17:26:48.302Z,-0.70
2022-12-11T17:29:15.251Z,-0.70
2022-12-11T17:31:42.219Z,-0.80
2022-12-11T17:34:09.194Z,-0.70
2022-12-11T17:36:36.077Z,-0.80
2022-12-11T17:39:03.396Z,-0.80
2022-12-11T17:41:30.339Z,-0.80
2022-12-11T17:43:57.238Z,-0.80
2022-12-11T17:46:24.240Z,-0.80
2022-12-11T17:48:51.325Z,-0.80
2022-12-11T17:51:22.085Z,-0.80
2022-12-11T17:53:49.406Z,-0.90
2022-12-11T17:56:16.675Z,-0.90
2022-12-11T17:58:43.773Z,-0.90
2022-12-11T18:01:12.558Z,-0.90
2022-12-11T18:03:39.755Z,-0.80
2022-12-11T18:06:08.152Z,-0.90
2022-12-11T18:08:35.127Z,-0.90
2022-12-11T18:11:08.621Z,-0.90
2022-12-11T18:13:35.683Z,-0.90
2022-12-11T18:16:07.045Z,-0.90
2022-12-11T18:18:34.070Z,-0.90
2022-12-11T18:21:01.031Z,-0.90
2022-12-11T18:23:28.042Z,-0.90
2022-12-11T18:25:55.150Z,-1.00
2022-12-11T18:28:22.208Z,-1.00
2022-12-11T18:30:49.073Z,-1.00
2022-12-11T18:33:16.106Z,-1.00
2022-12-11T18:35:43.173Z,-1.00
2022-12-11T18:38:10.213Z,-1.00
2022-12-11T18:40:37.873Z,-1.00
2022-12-11T18:43:04.881Z,-0.90
2022-12-11T18:45:32.013Z,-1.00
2022-12-11T18:47:58.913Z,-0.90
2022-12-11T18:50:25.994Z,-0.90
2022-12-11T18:52:53.937Z,-0.90
2022-12-11T18:55:21.131Z,-0.90
2022-12-11T18:57:48.067Z,-0.90
2022-12-11T19:00:15.188Z,-0.90
2022-12-11T19:02:42.221Z,-0.90
2022-12-11T19:05:09.658Z,-1.00
2022-12-11T19:07:36.951Z,-1.00
2022-12-11T19:10:05.486Z,-1.00
2022-12-11T19:12:32.401Z,-1.00
2022-12-11T19:14:59.358Z,-1.00
2022-12-11T19:17:26.264Z,-1.00
2022-12-11T19:19:53.215Z,-1.00
2022-12-11T19:22:20.550Z,-1.00
2022-12-11T19:24:47.493Z,-1.00
2022-12-11T19:27:14.466Z,-1.00
2022-12-11T19:29:41.427Z,-1.00
2022-12-11T19:32:08.559Z,-1.00
2022-12-11T19:34:35.787Z,-1.00
2022-12-11T19:37:02.651Z,-1.00
2022-12-11T19:39:29.779Z,-0.90
2022-12-11T19:41:56.743Z,-0.90
2022-12-11T19:44:23.775Z,-0.90
2022-12-11T19:46:50.791Z,-1.00
2022-12-11T19:49:18.387Z,-1.00
2022-12-11T19:51:45.495Z,-0.90
2022-12-11T19:54:13.119Z,-1.00
2022-12-11T19:56:40.149Z,-1.00
2022-12-11T19:59:08.351Z,-0.90
2022-12-11T20:01:36.065Z,-0.90
2022-12-11T20:04:07.257Z,-0.90
2022-12-11T20:06:34.884Z,-0.90
2022-12-11T20:09:02.186Z,-0.90
2022-12-11T20:11:29.189Z,-0.90
2022-12-11T20:13:56.132Z,-0.90
2022-12-11T20:16:39.567Z,-0.90
2022-12-11T20:19:10.053Z,-0.80
2022-12-11T20:21:37.255Z,-0.80
2022-12-11T20:24:04.238Z,-0.70
2022-12-11T20:26:32.646Z,-0.80
2022-12-11T20:28:59.738Z,-0.80
2022-12-11T20:31:27.025Z,-0.80
2022-12-11T20:33:54.075Z,-0.80
2022-12-11T20:36:21.277Z,-0.70
2022-12-11T20:38:48.255Z,-0.80
2022-12-11T20:41:16.191Z,-0.80
2022-12-11T20:43:43.195Z,-0.70
2022-12-11T20:46:10.531Z,-0.80
2022-12-11T20:48:38.321Z,-0.70
2022-12-11T20:51:05.835Z,-0.70
2022-12-11T20:53:34.717Z,-0.70
2022-12-11T20:56:01.985Z,-0.80
2022-12-11T20:58:29.032Z,-0.70
2022-12-11T21:00:56.151Z,-0.80
2022-12-11T21:03:23.206Z,-0.80
2022-12-11T21:05:50.660Z,-0.70
2022-12-11T21:08:17.645Z,-0.70
2022-12-11T21:10:44.658Z,-0.70
2022-12-11T21:13:12.116Z,-0.70
2022-12-11T21:15:39.122Z,-0.70
2022-12-11T21:18:07.192Z,-0.80
2022-12-11T21:20:34.549Z,-0.70
2022-12-11T21:23:02.058Z,-0.80
2022-12-11T21:25:29.121Z,-0.70
2022-12-11T21:27:57.182Z,-0.70
2022-12-11T21:30:24.173Z,-0.80
2022-12-11T21:32:51.060Z,-0.80
2022-12-11T21:35:18.068Z,-0.80
2022-12-11T21:37:45.058Z,-0.80
2022-12-11T21:40:14.367Z,-0.70
2022-12-11T21:42:41.600Z,-0.70
2022-12-11T21:47:55.695Z,-0.70
2022-12-11T21:50:23.641Z,-0.70
2022-12-11T21:52:50.588Z,-0.70
2022-12-11T21:55:18.359Z,-0.60
2022-12-11T21:57:45.313Z,-0.60
2022-12-11T22:00:12.763Z,-0.60
2022-12-11T22:02:41.196Z,-0.70
2022-12-11T22:05:08.661Z,-0.60
2022-12-11T22:07:35.656Z,-0.70
2022-12-11T22:10:02.688Z,-0.70
2022-12-11T22:12:29.641Z,-0.60
2022-12-11T22:14:56.679Z,-0.60
2022-12-11T22:17:23.566Z,-0.70
2022-12-11T22:19:52.109Z,-0.70
2022-12-11T22:22:19.388Z,-0.70
2022-12-11T22:24:46.495Z,-0.60
2022-12-11T22:27:13.459Z,-0.60
2022-12-11T22:29:40.342Z,-0.60
2022-12-11T22:32:07.355Z,-0.60
2022-12-11T22:34:34.277Z,-0.60
2022-12-11T22:37:01.284Z,-0.60
2022-12-11T22:39:28.218Z,-0.60
2022-12-11T22:41:55.580Z,-0.60
2022-12-11T22:44:22.703Z,-0.60
2022-12-11T22:46:50.641Z,-0.60
2022-12-11T22:49:18.796Z,-0.60
2022-12-11T22:51:45.976Z,-0.60
2022-12-11T22:54:12.847Z,-0.60
2022-12-11T22:56:39.870Z,-0.60
2022-12-11T22:59:07.669Z,-0.60
2022-12-11T23:01:34.704Z,-0.60
2022-12-11T23:04:01.656Z,-0.60
2022-12-11T23:06:28.675Z,-0.50
2022-12-11T23:08:58.932Z,-0.50
2022-12-11T23:11:29.345Z,-0.50
2022-12-11T23:13:56.375Z,-0.50
2022-12-11T23:16:23.882Z,-0.50
2022-12-11T23:18:50.924Z,-0.50
2022-12-11T23:21:17.834Z,-0.50
2022-12-11T23:23:44.785Z,-0.50
2022-12-11T23:26:12.576Z,-0.50
2022-12-11T23:28:39.638Z,-0.40
2022-12-11T23:31:06.673Z,-0.50
2022-12-11T23:33:33.679Z,-0.50
2022-12-11T23:36:00.794Z,-0.50
2022-12-11T23:38:27.802Z,-0.50
2022-12-11T23:40:54.868Z,-0.50
2022-12-11T23:43:22.124Z,-0.50
2022-12-11T23:45:49.073Z,-0.50
2022-12-11T23:48:16.077Z,-0.50
2022-12-11T23:50:42.965Z,-0.50
2022-12-11T23:53:09.900Z,-0.50
2022-12-11T23:55:38.448Z,-0.40
2022-12-11T23:58:05.391Z,-0.40
